Time;durP1;ratioP1;P1;durP2;ratioP2;P2;SDS_P1;SDS_P2;PMS_P1;PMS_P2;Temp;Humidity;BMP_temperature;BMP_pressure;BME280_temperature;BME280_humidity;BME280_pressure;Samples;Min_cycle;Max_cycle;Signal;HPM_P1;HPM_P2
2021/12/01 00:02:07;;;;;;;56.13;37.15;;;;;;;;;;1853643;75;21158;-81
2021/12/01 00:04:37;;;;;;;48.35;37.33;;;;;;;;;;1857133;75;21150;-82
2021/12/01 00:07:09;;;;;;;47.67;35.95;;;;;;;;;;1872540;76;21207;-81
2021/12/01 00:09:39;;;;;;;48.08;35.40;;;;;;;;;;1865996;76;21162;-82
2021/12/01 00:12:09;;;;;;;44.13;35.88;;;;;;;;;;1832910;75;21224;-83
2021/12/01 00:14:39;;;;;;;47.78;36.15;;;;;;;;;;1853019;75;21209;-81
2021/12/01 00:17:11;;;;;;;47.35;36.60;;;;;;;;;;1856920;76;21242;-81
2021/12/01 00:19:40;;;;;;;48.95;35.68;;;;;;;;;;1870126;75;21600;-81
2021/12/01 00:22:11;;;;;;;49.30;37.75;;;;;;;;;;1858987;75;21149;-80
2021/12/01 00:24:41;;;;;;;48.55;38.25;;;;;;;;;;1858400;76;21507;-81
2021/12/01 00:27:11;;;;;;;48.95;37.40;;;;;;;;;;1831450;77;21110;-81
2021/12/01 00:29:41;;;;;;;55.55;40.63;;;;;;;;;;1860552;75;21324;-81
2021/12/01 00:32:11;;;;;;;61.60;44.30;;;;;;;;;;1873545;76;21811;-82
2021/12/01 00:34:41;;;;;;;49.90;36.45;;;;;;;;;;1845684;75;21204;-80
2021/12/01 00:37:12;;;;;;;49.13;36.08;;;;;;;;;;1856435;75;21606;-81
2021/12/01 00:39:42;;;;;;;43.15;34.30;;;;;;;;;;1862300;76;21654;-82
2021/12/01 00:42:12;;;;;;;49.03;35.17;;;;;;;;;;1866105;76;21222;-81
2021/12/01 00:44:46;;;;;;;50.83;34.35;;;;;;;;;;1861740;76;21641;-82
2021/12/01 00:47:15;;;;;;;46.28;32.65;;;;;;;;;;1847877;76;21171;-83
2021/12/01 00:49:45;;;;;;;44.40;34.38;;;;;;;;;;1836982;76;21790;-73
2021/12/01 00:52:18;;;;;;;44.45;32.85;;;;;;;;;;1842212;76;21142;-73
2021/12/01 00:54:49;;;;;;;44.42;31.87;;;;;;;;;;1844182;76;21134;-70
2021/12/01 00:57:21;;;;;;;66.07;34.55;;;;;;;;;;1847163;76;21221;-72
2021/12/01 00:59:52;;;;;;;43.20;32.08;;;;;;;;;;1839101;76;21242;-71
2021/12/01 01:02:25;;;;;;;40.12;32.50;;;;;;;;;;1839394;76;21117;-71
2021/12/01 01:04:55;;;;;;;39.38;32.85;;;;;;;;;;1836421;76;21080;-71
2021/12/01 01:07:25;;;;;;;46.10;32.73;;;;;;;;;;1837939;76;21161;-70
2021/12/01 01:09:58;;;;;;;42.58;32.23;;;;;;;;;;1843055;76;21140;-70
2021/12/01 01:17:38;;;;;;;42.67;33.15;;;;;;;;;;1848896;76;21184;-71
2021/12/01 01:20:01;;;;;;;49.08;33.83;;;;;;;;;;1850086;76;21104;-71
2021/12/01 01:22:37;;;;;;;40.00;32.78;;;;;;;;;;1850677;76;21163;-70
2021/12/01 01:25:11;;;;;;;45.00;32.23;;;;;;;;;;1837270;77;21190;-69
2021/12/01 01:27:43;;;;;;;46.15;33.13;;;;;;;;;;1798633;79;21236;-70
2021/12/01 01:30:14;;;;;;;44.77;32.45;;;;;;;;;;1814041;77;21160;-70
2021/12/01 01:32:44;;;;;;;43.55;33.65;;;;;;;;;;1832418;77;21216;-71
2021/12/01 01:35:18;;;;;;;43.85;30.82;;;;;;;;;;1816246;78;21179;-70
2021/12/01 01:37:51;;;;;;;42.17;32.63;;;;;;;;;;1829920;78;21161;-71
2021/12/01 01:40:22;;;;;;;39.18;29.12;;;;;;;;;;1819947;77;21195;-71
2021/12/01 01:42:52;;;;;;;44.53;30.40;;;;;;;;;;1855061;76;21537;-70
2021/12/01 01:45:22;;;;;;;44.27;30.60;;;;;;;;;;1860234;76;21160;-70
2021/12/01 01:48:00;;;;;;;39.83;28.17;;;;;;;;;;1866325;76;21229;-69
2021/12/01 01:50:36;;;;;;;41.60;29.50;;;;;;;;;;1845199;76;21173;-68
2021/12/01 01:52:57;;;;;;;41.40;28.87;;;;;;;;;;1858387;76;21099;-71
2021/12/01 01:55:27;;;;;;;41.10;29.05;;;;;;;;;;1851517;76;21203;-69
2021/12/01 01:57:57;;;;;;;42.35;29.25;;;;;;;;;;1849649;76;21155;-70
2021/12/01 02:00:27;;;;;;;41.83;29.92;;;;;;;;;;1872290;76;21095;-71
2021/12/01 02:02:59;;;;;;;40.35;28.90;;;;;;;;;;1859517;76;21143;-71
2021/12/01 02:05:37;;;;;;;40.52;27.90;;;;;;;;;;1854748;76;21159;-70
2021/12/01 02:08:03;;;;;;;30.80;26.90;;;;;;;;;;1790920;78;21631;-71
2021/12/01 02:10:33;;;;;;;37.08;26.82;;;;;;;;;;1854132;76;21143;-69
2021/12/01 02:13:03;;;;;;;36.48;25.27;;;;;;;;;;1849799;76;21225;-69
2021/12/01 02:15:35;;;;;;;36.63;26.40;;;;;;;;;;1858813;76;21166;-71
2021/12/01 02:18:04;;;;;;;34.53;25.08;;;;;;;;;;1848338;76;21192;-71
2021/12/01 02:20:36;;;;;;;32.30;25.43;;;;;;;;;;1850959;76;21171;-71
2021/12/01 02:23:06;;;;;;;35.03;26.40;;;;;;;;;;1864145;76;21555;-71
2021/12/01 02:25:36;;;;;;;33.05;26.10;;;;;;;;;;1864326;76;21103;-71
2021/12/01 02:28:08;;;;;;;37.55;25.68;;;;;;;;;;1868553;76;21109;-72
2021/12/01 02:30:38;;;;;;;30.57;24.67;;;;;;;;;;1866999;76;21102;-71
2021/12/01 02:33:08;;;;;;;35.88;25.15;;;;;;;;;;1851255;76;21195;-70
2021/12/01 02:35:38;;;;;;;36.77;27.17;;;;;;;;;;1863066;76;21152;-71
2021/12/01 02:38:08;;;;;;;39.70;26.45;;;;;;;;;;1862008;76;21132;-71
2021/12/01 02:40:38;;;;;;;37.70;27.45;;;;;;;;;;1851953;76;21677;-71
2021/12/01 02:43:08;;;;;;;34.75;25.62;;;;;;;;;;1847964;76;21178;-71
2021/12/01 02:45:40;;;;;;;37.65;25.55;;;;;;;;;;1842872;76;21105;-71
2021/12/01 02:48:13;;;;;;;33.33;24.72;;;;;;;;;;1850681;76;21237;-70
2021/12/01 02:50:42;;;;;;;37.20;26.42;;;;;;;;;;1853347;76;21036;-70
2021/12/01 02:53:13;;;;;;;38.23;26.70;;;;;;;;;;1847685;76;21633;-70
2021/12/01 02:55:45;;;;;;;35.78;24.90;;;;;;;;;;1845632;76;21725;-71
2021/12/01 02:58:16;;;;;;;33.70;24.55;;;;;;;;;;1848713;76;21147;-70
2021/12/01 03:00:47;;;;;;;34.30;25.32;;;;;;;;;;1849307;76;21509;-69
2021/12/01 03:03:18;;;;;;;36.08;25.37;;;;;;;;;;1849266;76;21663;-70
2021/12/01 03:05:49;;;;;;;39.03;25.77;;;;;;;;;;1854805;76;21151;-71
2021/12/01 03:08:20;;;;;;;33.65;25.02;;;;;;;;;;1849284;76;21087;-71
2021/12/01 03:10:52;;;;;;;40.60;26.97;;;;;;;;;;1843460;76;21144;-71
2021/12/01 03:13:23;;;;;;;36.68;25.62;;;;;;;;;;1840541;76;21102;-71
2021/12/01 03:15:53;;;;;;;35.10;26.35;;;;;;;;;;1824205;77;21120;-71
2021/12/01 03:18:24;;;;;;;36.25;26.52;;;;;;;;;;1807544;79;21713;-70
2021/12/01 03:20:54;;;;;;;36.00;25.32;;;;;;;;;;1821137;77;21201;-70
2021/12/01 03:23:25;;;;;;;36.65;25.95;;;;;;;;;;1802589;78;21202;-70
2021/12/01 03:25:55;;;;;;;33.60;25.10;;;;;;;;;;1825430;77;21113;-70
2021/12/01 03:28:25;;;;;;;37.83;25.32;;;;;;;;;;1789254;79;21147;-69
2021/12/01 03:30:56;;;;;;;36.30;26.57;;;;;;;;;;1798019;78;21124;-70
2021/12/01 03:33:26;;;;;;;30.55;23.12;;;;;;;;;;1852091;76;21109;-70
2021/12/01 03:35:56;;;;;;;37.53;24.47;;;;;;;;;;1848760;76;21094;-70
2021/12/01 03:38:27;;;;;;;36.13;24.52;;;;;;;;;;1840248;76;21669;-71
2021/12/01 03:40:58;;;;;;;34.27;24.32;;;;;;;;;;1854931;76;21749;-70
2021/12/01 03:43:29;;;;;;;25.15;20.57;;;;;;;;;;1848148;76;21157;-71
2021/12/01 03:45:59;;;;;;;28.10;19.40;;;;;;;;;;1852776;76;21072;-71
2021/12/01 03:48:29;;;;;;;26.95;20.37;;;;;;;;;;1843288;76;21169;-70
2021/12/01 03:50:59;;;;;;;30.68;20.65;;;;;;;;;;1868236;76;21280;-71
2021/12/01 03:53:29;;;;;;;24.77;19.62;;;;;;;;;;1875239;76;21165;-72
2021/12/01 03:55:59;;;;;;;26.68;20.52;;;;;;;;;;1851097;76;21140;-71
2021/12/01 03:58:30;;;;;;;26.05;18.95;;;;;;;;;;1852903;76;21743;-70
2021/12/01 04:01:00;;;;;;;23.27;18.55;;;;;;;;;;1859899;76;21207;-72
2021/12/01 04:03:30;;;;;;;25.23;18.42;;;;;;;;;;1861907;76;21667;-70
2021/12/01 04:06:00;;;;;;;26.97;18.50;;;;;;;;;;1850653;76;21218;-70
2021/12/01 04:08:31;;;;;;;25.32;18.92;;;;;;;;;;1857382;76;21220;-70
2021/12/01 04:11:01;;;;;;;27.62;19.37;;;;;;;;;;1862319;76;21084;-71
2021/12/01 04:13:32;;;;;;;27.25;19.32;;;;;;;;;;1854570;76;21123;-70
2021/12/01 04:16:02;;;;;;;28.85;18.75;;;;;;;;;;1854748;76;21580;-71
2021/12/01 04:18:32;;;;;;;28.92;19.10;;;;;;;;;;1855824;76;21089;-69
2021/12/01 04:21:02;;;;;;;23.07;18.77;;;;;;;;;;1852472;76;21592;-70
2021/12/01 04:23:34;;;;;;;23.02;18.70;;;;;;;;;;1852344;76;21171;-70
2021/12/01 04:26:04;;;;;;;27.13;18.23;;;;;;;;;;1847077;76;21162;-71
2021/12/01 04:28:34;;;;;;;27.90;19.48;;;;;;;;;;1857781;76;21347;-71
2021/12/01 04:31:04;;;;;;;22.40;17.92;;;;;;;;;;1855533;76;21591;-71
2021/12/01 04:33:34;;;;;;;24.45;17.95;;;;;;;;;;1849460;76;21163;-69
2021/12/01 04:36:04;;;;;;;27.73;18.10;;;;;;;;;;1846669;76;21136;-70
2021/12/01 04:38:34;;;;;;;22.75;17.62;;;;;;;;;;1845194;76;21693;-70
2021/12/01 04:41:07;;;;;;;21.23;17.55;;;;;;;;;;1842572;76;21132;-70
2021/12/01 04:43:38;;;;;;;22.82;17.55;;;;;;;;;;1846158;76;21138;-71
2021/12/01 04:46:08;;;;;;;21.60;17.05;;;;;;;;;;1852126;76;21151;-70
2021/12/01 04:48:39;;;;;;;23.27;17.15;;;;;;;;;;1840356;76;21231;-71
2021/12/01 04:51:09;;;;;;;21.37;16.70;;;;;;;;;;1846105;76;21209;-71
2021/12/01 04:53:39;;;;;;;19.95;16.40;;;;;;;;;;1856109;76;21766;-70
2021/12/01 04:56:10;;;;;;;21.30;17.10;;;;;;;;;;1853861;76;21096;-70
2021/12/01 04:58:40;;;;;;;22.42;17.52;;;;;;;;;;1847346;76;21149;-71
2021/12/01 05:01:11;;;;;;;27.58;16.55;;;;;;;;;;1845368;76;21699;-70
2021/12/01 05:03:41;;;;;;;23.62;16.65;;;;;;;;;;1851635;76;21929;-72
2021/12/01 05:06:16;;;;;;;21.55;16.65;;;;;;;;;;1845609;76;21131;-72
2021/12/01 05:08:42;;;;;;;21.27;16.15;;;;;;;;;;1845198;76;21228;-74
2021/12/01 05:11:12;;;;;;;24.75;17.17;;;;;;;;;;1845406;76;21172;-72
2021/12/01 05:13:44;;;;;;;22.48;16.30;;;;;;;;;;1845867;75;21211;-72
2021/12/01 05:16:14;;;;;;;19.67;16.23;;;;;;;;;;1855867;76;21160;-71
2021/12/01 05:18:44;;;;;;;22.65;15.65;;;;;;;;;;1846626;76;21663;-72
2021/12/01 05:21:14;;;;;;;23.90;16.55;;;;;;;;;;1848921;76;21097;-69
2021/12/01 05:23:44;;;;;;;20.60;16.15;;;;;;;;;;1842315;76;21645;-70
2021/12/01 05:26:14;;;;;;;22.98;16.70;;;;;;;;;;1851095;76;21132;-70
2021/12/01 05:28:44;;;;;;;18.67;15.68;;;;;;;;;;1859027;76;21151;-70
2021/12/01 05:31:14;;;;;;;20.45;16.17;;;;;;;;;;1845086;76;21240;-70
2021/12/01 05:33:44;;;;;;;21.93;17.15;;;;;;;;;;1852041;76;21366;-71
2021/12/01 05:36:15;;;;;;;26.07;17.75;;;;;;;;;;1841418;77;21067;-70
2021/12/01 05:38:45;;;;;;;20.55;15.72;;;;;;;;;;1866742;77;21136;-71
2021/12/01 05:41:15;;;;;;;23.40;16.77;;;;;;;;;;1812918;77;21038;-71
2021/12/01 05:43:45;;;;;;;22.98;15.48;;;;;;;;;;1801558;77;21050;-71
2021/12/01 05:46:16;;;;;;;21.25;15.93;;;;;;;;;;1819567;76;21105;-70
2021/12/01 05:48:46;;;;;;;18.65;14.73;;;;;;;;;;1819535;76;21073;-70
2021/12/01 05:51:16;;;;;;;20.75;14.93;;;;;;;;;;1826833;76;21144;-71
2021/12/01 05:53:48;;;;;;;19.23;15.63;;;;;;;;;;1843966;77;21124;-71
2021/12/01 05:56:18;;;;;;;22.90;16.87;;;;;;;;;;1848178;76;21635;-69
2021/12/01 05:58:48;;;;;;;19.90;16.02;;;;;;;;;;1844517;77;21074;-70
2021/12/01 06:01:19;;;;;;;21.00;16.23;;;;;;;;;;1838246;76;21715;-71
2021/12/01 06:03:50;;;;;;;21.42;16.12;;;;;;;;;;1847599;76;21106;-70
2021/12/01 06:06:20;;;;;;;22.52;15.30;;;;;;;;;;1849277;76;21078;-72
2021/12/01 06:08:50;;;;;;;19.77;15.13;;;;;;;;;;1843486;76;21117;-71
2021/12/01 06:11:22;;;;;;;21.07;15.70;;;;;;;;;;1851591;76;21097;-71
2021/12/01 06:13:53;;;;;;;23.55;15.23;;;;;;;;;;1846241;77;21137;-70
2021/12/01 06:16:24;;;;;;;21.23;15.72;;;;;;;;;;1847120;76;21616;-71
2021/12/01 06:18:54;;;;;;;18.65;14.90;;;;;;;;;;1846027;76;21581;-71
2021/12/01 06:21:24;;;;;;;17.60;15.72;;;;;;;;;;1848349;76;21598;-72
2021/12/01 06:23:54;;;;;;;21.50;16.20;;;;;;;;;;1848347;77;21121;-72
2021/12/01 06:26:24;;;;;;;20.85;15.98;;;;;;;;;;1843573;76;21070;-71
2021/12/01 06:28:54;;;;;;;20.52;14.25;;;;;;;;;;1843894;76;21116;-70
2021/12/01 06:31:25;;;;;;;16.52;13.60;;;;;;;;;;1845412;76;21211;-71
2021/12/01 06:33:58;;;;;;;21.15;14.83;;;;;;;;;;1848114;76;21153;-71
2021/12/01 06:36:27;;;;;;;18.07;14.75;;;;;;;;;;1844177;76;21094;-71
2021/12/01 06:38:57;;;;;;;17.62;14.43;;;;;;;;;;1849743;76;21101;-71
2021/12/01 06:41:28;;;;;;;19.37;14.23;;;;;;;;;;1838735;76;21156;-70
2021/12/01 06:43:58;;;;;;;17.15;13.75;;;;;;;;;;1854411;77;21270;-71
2021/12/01 06:46:28;;;;;;;19.45;14.50;;;;;;;;;;1854576;76;21698;-71
2021/12/01 06:48:59;;;;;;;17.55;13.88;;;;;;;;;;1852114;77;21133;-70
2021/12/01 06:51:29;;;;;;;18.42;12.63;;;;;;;;;;1856907;75;21296;-71
2021/12/01 06:53:59;;;;;;;23.30;13.55;;;;;;;;;;1857236;77;21157;-70
2021/12/01 06:56:29;;;;;;;17.32;13.10;;;;;;;;;;1854807;75;21152;-71
2021/12/01 06:58:59;;;;;;;16.35;12.82;;;;;;;;;;1856150;77;21216;-70
2021/12/01 07:01:30;;;;;;;18.48;13.28;;;;;;;;;;1852509;75;21125;-70
2021/12/01 07:04:00;;;;;;;18.77;13.38;;;;;;;;;;1850371;76;21163;-71
2021/12/01 07:06:30;;;;;;;21.82;13.95;;;;;;;;;;1850699;77;21144;-71
2021/12/01 07:09:01;;;;;;;15.72;13.50;;;;;;;;;;1851778;76;21219;-71
2021/12/01 07:11:31;;;;;;;19.52;13.48;;;;;;;;;;1852082;76;21120;-71
2021/12/01 07:14:02;;;;;;;17.12;13.83;;;;;;;;;;1855739;77;21671;-70
2021/12/01 07:16:32;;;;;;;17.60;14.15;;;;;;;;;;1856746;76;21164;-70
2021/12/01 07:19:03;;;;;;;21.52;13.15;;;;;;;;;;1868925;75;21706;-71
2021/12/01 07:21:35;;;;;;;17.48;13.80;;;;;;;;;;1860200;75;21434;-71
2021/12/01 07:24:06;;;;;;;19.48;14.63;;;;;;;;;;1859955;75;21105;-71
2021/12/01 07:26:36;;;;;;;16.67;13.50;;;;;;;;;;1860395;75;21197;-71
2021/12/01 07:29:07;;;;;;;17.45;12.88;;;;;;;;;;1857106;75;21692;-72
2021/12/01 07:31:37;;;;;;;18.55;13.60;;;;;;;;;;1850476;75;21660;-71
2021/12/01 07:34:07;;;;;;;19.25;13.25;;;;;;;;;;1851371;75;21105;-70
2021/12/01 07:36:37;;;;;;;16.67;13.22;;;;;;;;;;1854328;76;21152;-71
2021/12/01 07:39:07;;;;;;;15.13;12.07;;;;;;;;;;1858029;75;21207;-71
2021/12/01 07:41:37;;;;;;;14.35;12.50;;;;;;;;;;1851631;75;21160;-71
2021/12/01 07:44:07;;;;;;;18.15;13.32;;;;;;;;;;1846766;75;21222;-70
2021/12/01 07:46:38;;;;;;;16.30;12.78;;;;;;;;;;1872335;75;21226;-71
2021/12/01 07:49:08;;;;;;;15.95;13.15;;;;;;;;;;1870947;75;21177;-71
2021/12/01 07:51:38;;;;;;;14.20;12.43;;;;;;;;;;1846294;77;21252;-71
2021/12/01 07:54:09;;;;;;;15.93;12.20;;;;;;;;;;1799091;78;21284;-71
2021/12/01 07:56:39;;;;;;;14.80;11.97;;;;;;;;;;1864065;75;21140;-71
2021/12/01 07:59:11;;;;;;;18.55;11.65;;;;;;;;;;1877380;75;21554;-71
2021/12/01 08:01:41;;;;;;;15.18;12.95;;;;;;;;;;1850136;75;21721;-70
2021/12/01 08:04:12;;;;;;;15.15;12.45;;;;;;;;;;1846279;75;21172;-71
2021/12/01 08:06:45;;;;;;;15.45;12.35;;;;;;;;;;1807616;77;21224;-70
2021/12/01 08:09:14;;;;;;;19.50;11.97;;;;;;;;;;1854348;76;21156;-70
2021/12/01 08:11:44;;;;;;;14.23;11.85;;;;;;;;;;1855262;76;21721;-70
2021/12/01 08:14:14;;;;;;;15.75;12.43;;;;;;;;;;1857102;75;21107;-71
2021/12/01 08:16:45;;;;;;;17.60;12.47;;;;;;;;;;1864470;75;21689;-70
2021/12/01 08:19:16;;;;;;;15.25;12.33;;;;;;;;;;1864207;75;21222;-70
2021/12/01 08:21:49;;;;;;;18.40;12.65;;;;;;;;;;1874833;75;21200;-69
2021/12/01 08:24:19;;;;;;;16.95;12.85;;;;;;;;;;1850442;76;21113;-70
2021/12/01 08:26:50;;;;;;;16.05;12.95;;;;;;;;;;1835421;76;21180;-70
2021/12/01 08:29:20;;;;;;;17.23;12.93;;;;;;;;;;1849556;75;21237;-71
2021/12/01 08:31:50;;;;;;;15.60;12.43;;;;;;;;;;1854625;75;21237;-71
2021/12/01 08:34:21;;;;;;;15.50;12.33;;;;;;;;;;1863428;75;21152;-71
2021/12/01 08:36:51;;;;;;;15.98;12.80;;;;;;;;;;1858942;75;21162;-71
2021/12/01 08:39:21;;;;;;;14.85;12.60;;;;;;;;;;1853236;75;21684;-71
2021/12/01 08:41:52;;;;;;;18.07;13.05;;;;;;;;;;1853499;76;21160;-70
2021/12/01 08:44:22;;;;;;;17.25;12.45;;;;;;;;;;1856576;77;21196;-70
2021/12/01 08:46:52;;;;;;;16.77;13.53;;;;;;;;;;1848492;77;21989;-70
2021/12/01 08:49:22;;;;;;;23.98;14.05;;;;;;;;;;1846578;77;21157;-70
2021/12/01 08:51:53;;;;;;;17.07;13.40;;;;;;;;;;1844375;76;21114;-70
2021/12/01 08:54:23;;;;;;;19.55;13.85;;;;;;;;;;1855999;76;21672;-71
2021/12/01 08:56:53;;;;;;;19.85;14.25;;;;;;;;;;1848009;76;21204;-71
2021/12/01 08:59:23;;;;;;;16.82;14.78;;;;;;;;;;1844678;76;21145;-71
2021/12/01 09:01:53;;;;;;;17.20;14.03;;;;;;;;;;1831640;76;21124;-70
2021/12/01 09:04:24;;;;;;;17.73;13.90;;;;;;;;;;1853491;76;22143;-71
2021/12/01 09:06:55;;;;;;;14.95;13.35;;;;;;;;;;1844916;76;21564;-71
2021/12/01 09:09:24;;;;;;;17.02;13.53;;;;;;;;;;1848408;77;21568;-71
2021/12/01 09:11:55;;;;;;;16.57;13.83;;;;;;;;;;1839091;76;21251;-71
2021/12/01 09:14:26;;;;;;;16.23;13.80;;;;;;;;;;1845720;77;21198;-71
2021/12/01 09:16:56;;;;;;;19.90;14.07;;;;;;;;;;1850245;76;21185;-71
2021/12/01 09:19:27;;;;;;;18.42;13.72;;;;;;;;;;1846241;76;21164;-72
2021/12/01 09:21:57;;;;;;;17.48;13.60;;;;;;;;;;1841060;76;21050;-70
2021/12/01 09:24:27;;;;;;;16.10;13.03;;;;;;;;;;1848397;76;21673;-70
2021/12/01 09:26:57;;;;;;;17.75;12.70;;;;;;;;;;1852088;76;21120;-71
2021/12/01 09:29:29;;;;;;;20.08;12.47;;;;;;;;;;1833945;76;22230;-72
2021/12/01 09:31:59;;;;;;;17.65;15.68;;;;;;;;;;1856452;76;21171;-72
2021/12/01 09:34:29;;;;;;;20.17;15.32;;;;;;;;;;1848400;76;21171;-71
2021/12/01 09:37:00;;;;;;;18.95;14.65;;;;;;;;;;1849323;76;21128;-72
2021/12/01 09:39:30;;;;;;;16.85;14.18;;;;;;;;;;1836339;77;22009;-72
2021/12/01 09:42:01;;;;;;;19.65;14.73;;;;;;;;;;1838650;76;21603;-72
2021/12/01 09:44:33;;;;;;;18.85;13.60;;;;;;;;;;1820108;77;21150;-73
2021/12/01 09:47:03;;;;;;;21.20;16.12;;;;;;;;;;1845211;76;21168;-69
2021/12/01 09:49:34;;;;;;;56.30;20.43;;;;;;;;;;1862223;75;21796;-71
2021/12/01 09:52:04;;;;;;;25.05;18.67;;;;;;;;;;1859988;75;21252;-71
2021/12/01 09:54:36;;;;;;;30.57;22.52;;;;;;;;;;1846246;75;21214;-71
2021/12/01 09:57:12;;;;;;;34.38;23.38;;;;;;;;;;1815143;77;21618;-71
2021/12/01 09:59:39;;;;;;;27.02;18.80;;;;;;;;;;1782556;78;21375;-73
2021/12/01 10:02:15;;;;;;;112.45;24.67;;;;;;;;;;1856394;75;21129;-71
2021/12/01 10:04:42;;;;;;;31.10;14.93;;;;;;;;;;1861983;75;21137;-71
2021/12/01 10:07:13;;;;;;;69.15;18.82;;;;;;;;;;1862698;75;21096;-71
2021/12/01 10:09:44;;;;;;;136.50;23.25;;;;;;;;;;1867877;76;21642;-71
2021/12/01 10:12:15;;;;;;;78.07;19.62;;;;;;;;;;1834960;76;21202;-71
2021/12/01 10:14:47;;;;;;;238.75;29.98;;;;;;;;;;1856941;76;21168;-71
2021/12/01 10:17:18;;;;;;;95.72;21.07;;;;;;;;;;1832045;75;21149;-72
2021/12/01 10:19:49;;;;;;;54.98;16.20;;;;;;;;;;1827026;77;21163;-70
2021/12/01 10:22:19;;;;;;;36.90;15.83;;;;;;;;;;1863716;75;21304;-71
2021/12/01 10:24:50;;;;;;;18.05;13.20;;;;;;;;;;1855389;75;21553;-69
2021/12/01 10:27:23;;;;;;;16.87;13.45;;;;;;;;;;1858258;75;21127;-70
2021/12/01 10:29:53;;;;;;;18.80;13.65;;;;;;;;;;1856622;75;21167;-72
2021/12/01 10:32:23;;;;;;;20.05;13.40;;;;;;;;;;1861660;75;21162;-70
2021/12/01 10:34:57;;;;;;;18.20;14.03;;;;;;;;;;1862070;75;21105;-71
2021/12/01 10:37:27;;;;;;;22.00;14.18;;;;;;;;;;1828980;77;21178;-72
2021/12/01 10:39:58;;;;;;;19.35;15.70;;;;;;;;;;1843870;75;21244;-71
2021/12/01 10:42:28;;;;;;;27.35;16.70;;;;;;;;;;1851071;75;21210;-71
2021/12/01 10:44:59;;;;;;;25.77;19.65;;;;;;;;;;1862196;75;21158;-71
2021/12/01 10:47:32;;;;;;;27.32;18.77;;;;;;;;;;1868854;75;21175;-71
2021/12/01 10:50:05;;;;;;;27.17;18.98;;;;;;;;;;1833842;76;21142;-71
2021/12/01 10:52:36;;;;;;;24.63;17.57;;;;;;;;;;1813095;79;21149;-71
2021/12/01 10:55:08;;;;;;;22.50;17.75;;;;;;;;;;1845300;76;21648;-70
2021/12/01 10:57:40;;;;;;;23.40;16.93;;;;;;;;;;1861855;75;21890;-71
2021/12/01 11:00:11;;;;;;;21.52;15.50;;;;;;;;;;1867486;75;21090;-71
2021/12/01 11:02:41;;;;;;;24.57;17.98;;;;;;;;;;1845346;75;21101;-69
2021/12/01 11:05:13;;;;;;;26.15;18.80;;;;;;;;;;1860761;75;21610;-71
2021/12/01 11:07:43;;;;;;;23.90;18.73;;;;;;;;;;1815580;77;21133;-69
2021/12/01 11:10:13;;;;;;;20.72;16.17;;;;;;;;;;1855541;75;21085;-69
2021/12/01 11:12:44;;;;;;;24.47;17.48;;;;;;;;;;1854692;75;21589;-69
2021/12/01 11:15:16;;;;;;;25.25;16.90;;;;;;;;;;1811213;76;21123;-70
2021/12/01 11:17:46;;;;;;;28.45;19.17;;;;;;;;;;1858426;76;21212;-70
2021/12/01 11:20:18;;;;;;;24.65;16.67;;;;;;;;;;1856000;76;21180;-70
2021/12/01 11:22:48;;;;;;;26.50;18.07;;;;;;;;;;1853811;75;21418;-70
2021/12/01 11:25:19;;;;;;;32.90;19.27;;;;;;;;;;1848031;75;21131;-70
2021/12/01 11:27:49;;;;;;;20.88;15.08;;;;;;;;;;1856356;75;21619;-71
2021/12/01 11:30:19;;;;;;;23.87;14.58;;;;;;;;;;1850481;75;21034;-70
2021/12/01 11:32:52;;;;;;;17.95;14.33;;;;;;;;;;1852985;75;21069;-71
2021/12/01 11:35:22;;;;;;;20.75;15.60;;;;;;;;;;1855473;75;21537;-70
2021/12/01 11:37:55;;;;;;;26.07;20.30;;;;;;;;;;1848277;75;21088;-72
2021/12/01 11:40:25;;;;;;;38.40;26.05;;;;;;;;;;1782285;78;21191;-73
2021/12/01 11:42:56;;;;;;;22.45;17.15;;;;;;;;;;1838439;76;21526;-73
2021/12/01 11:45:29;;;;;;;23.00;15.90;;;;;;;;;;1846792;75;22406;-71
2021/12/01 11:48:00;;;;;;;26.62;17.37;;;;;;;;;;1841125;76;21627;-70
2021/12/01 11:50:32;;;;;;;21.45;16.90;;;;;;;;;;1839012;75;21191;-68
2021/12/01 11:53:03;;;;;;;25.68;17.77;;;;;;;;;;1844830;75;21736;-71
2021/12/01 11:55:36;;;;;;;23.62;17.00;;;;;;;;;;1844812;75;21245;-71
2021/12/01 11:58:07;;;;;;;21.37;16.80;;;;;;;;;;1848097;75;21615;-71
2021/12/01 12:00:38;;;;;;;20.72;17.23;;;;;;;;;;1867800;75;21097;-71
2021/12/01 12:03:09;;;;;;;24.15;16.60;;;;;;;;;;1843158;76;21193;-71
2021/12/01 12:05:40;;;;;;;25.08;17.07;;;;;;;;;;1821596;77;21373;-71
2021/12/01 12:08:14;;;;;;;22.58;16.97;;;;;;;;;;1825992;77;21723;-70
2021/12/01 12:10:44;;;;;;;25.40;19.25;;;;;;;;;;1819207;77;21148;-70
2021/12/01 12:13:15;;;;;;;21.45;17.30;;;;;;;;;;1824369;77;21221;-70
2021/12/01 12:15:54;;;;;;;25.92;19.27;;;;;;;;;;1836739;77;21154;-70
2021/12/01 12:18:21;;;;;;;28.95;18.62;;;;;;;;;;1826179;77;21687;-70
2021/12/01 12:20:54;;;;;;;32.50;19.42;;;;;;;;;;1829915;77;21181;-72
2021/12/01 12:23:25;;;;;;;29.80;19.95;;;;;;;;;;1814809;77;21228;-70
2021/12/01 12:25:57;;;;;;;30.25;22.02;;;;;;;;;;1828667;77;21138;-70
2021/12/01 12:28:30;;;;;;;25.23;20.25;;;;;;;;;;1809238;77;21216;-71
2021/12/01 12:31:01;;;;;;;29.25;21.57;;;;;;;;;;1820905;77;21181;-71
2021/12/01 12:33:33;;;;;;;27.20;21.35;;;;;;;;;;1825176;77;21127;-71
2021/12/01 12:36:04;;;;;;;30.52;22.13;;;;;;;;;;1825488;77;21159;-71
2021/12/01 12:38:36;;;;;;;35.15;23.55;;;;;;;;;;1823098;77;21194;-70
2021/12/01 12:41:08;;;;;;;33.83;23.00;;;;;;;;;;1822223;78;21653;-71
2021/12/01 12:43:39;;;;;;;32.10;22.90;;;;;;;;;;1814406;77;21166;-71
2021/12/01 12:46:10;;;;;;;36.68;23.60;;;;;;;;;;1818185;78;21207;-71
2021/12/01 12:48:41;;;;;;;30.92;23.15;;;;;;;;;;1824472;78;21218;-70
2021/12/01 12:51:13;;;;;;;34.85;25.00;;;;;;;;;;1822382;77;21154;-74
2021/12/01 12:53:44;;;;;;;36.65;24.52;;;;;;;;;;1803400;78;21165;-72
2021/12/01 12:56:16;;;;;;;31.73;25.27;;;;;;;;;;1803938;78;21215;-71
2021/12/01 12:58:47;;;;;;;35.63;26.40;;;;;;;;;;1805290;78;21153;-70
2021/12/01 13:01:18;;;;;;;34.33;25.20;;;;;;;;;;1810811;77;21164;-71
2021/12/01 13:03:51;;;;;;;39.33;25.80;;;;;;;;;;1816591;77;21385;-71
2021/12/01 13:06:24;;;;;;;39.60;26.23;;;;;;;;;;1813349;78;21637;-71
2021/12/01 13:08:55;;;;;;;38.02;26.37;;;;;;;;;;1824815;77;21296;-71
2021/12/01 13:11:25;;;;;;;38.42;26.25;;;;;;;;;;1812688;77;21193;-70
2021/12/01 13:13:57;;;;;;;37.28;26.90;;;;;;;;;;1856989;76;21168;-70
2021/12/01 13:16:28;;;;;;;36.90;26.65;;;;;;;;;;1851373;76;21419;-71
2021/12/01 13:19:00;;;;;;;41.92;27.55;;;;;;;;;;1870293;76;21172;-70
2021/12/01 13:21:30;;;;;;;36.08;26.17;;;;;;;;;;1864215;76;21206;-71
2021/12/01 13:24:01;;;;;;;39.75;26.02;;;;;;;;;;1860825;76;21689;-72
2021/12/01 13:26:33;;;;;;;36.38;27.30;;;;;;;;;;1851468;76;21168;-71
2021/12/01 13:29:07;;;;;;;35.38;26.57;;;;;;;;;;1857216;76;21128;-71
2021/12/01 13:31:37;;;;;;;38.33;26.52;;;;;;;;;;1859489;76;21085;-71
2021/12/01 13:34:10;;;;;;;36.05;26.80;;;;;;;;;;1875834;76;21181;-71
2021/12/01 13:36:42;;;;;;;39.53;27.30;;;;;;;;;;1856525;77;21263;-70
2021/12/01 13:39:26;;;;;;;36.20;26.57;;;;;;;;;;1858198;76;21176;-71
2021/12/01 13:41:55;;;;;;;35.13;26.30;;;;;;;;;;1841252;77;21161;-70
2021/12/01 13:44:25;;;;;;;32.13;26.55;;;;;;;;;;1878271;76;21144;-71
2021/12/01 13:46:57;;;;;;;40.08;26.73;;;;;;;;;;1853871;77;21211;-71
2021/12/01 13:49:29;;;;;;;35.48;25.82;;;;;;;;;;1824092;76;21165;-80
2021/12/01 13:51:59;;;;;;;34.85;24.57;;;;;;;;;;1857761;77;21173;-81
2021/12/01 13:54:30;;;;;;;41.37;25.02;;;;;;;;;;1884736;76;21144;-81
2021/12/01 13:57:02;;;;;;;38.90;25.15;;;;;;;;;;1858090;76;21180;-81
2021/12/01 13:59:33;;;;;;;35.17;25.20;;;;;;;;;;1860540;76;21571;-81
2021/12/01 14:02:03;;;;;;;40.67;25.77;;;;;;;;;;1859643;76;21575;-79
2021/12/01 14:04:35;;;;;;;34.40;24.98;;;;;;;;;;1852787;76;21229;-81
2021/12/01 14:07:07;;;;;;;36.50;25.52;;;;;;;;;;1808965;79;21116;-80
2021/12/01 14:09:38;;;;;;;38.63;24.80;;;;;;;;;;1811902;77;21157;-79
2021/12/01 14:12:10;;;;;;;37.20;24.52;;;;;;;;;;1865671;76;21125;-80
2021/12/01 14:14:41;;;;;;;35.05;23.80;;;;;;;;;;1843318;76;21144;-81
2021/12/01 14:17:11;;;;;;;33.92;23.65;;;;;;;;;;1847928;77;21170;-80
2021/12/01 14:19:45;;;;;;;36.70;23.02;;;;;;;;;;1856694;76;21172;-81
2021/12/01 14:22:20;;;;;;;36.50;23.65;;;;;;;;;;1864396;76;21195;-81
2021/12/01 14:24:49;;;;;;;34.08;23.73;;;;;;;;;;1873493;76;21159;-81
2021/12/01 14:27:20;;;;;;;33.50;24.52;;;;;;;;;;1873505;76;21125;-82
2021/12/01 14:29:50;;;;;;;40.85;24.98;;;;;;;;;;1856192;76;21119;-81
2021/12/01 14:32:21;;;;;;;35.50;23.30;;;;;;;;;;1837184;76;21246;-81
2021/12/01 14:34:52;;;;;;;34.30;24.37;;;;;;;;;;1824048;78;21616;-81
2021/12/01 14:37:23;;;;;;;34.15;24.80;;;;;;;;;;1826980;77;21669;-80
2021/12/01 14:39:55;;;;;;;37.05;24.43;;;;;;;;;;1826667;76;21194;-80
2021/12/01 14:42:26;;;;;;;33.00;23.52;;;;;;;;;;1847664;76;21840;-79